createdAt,value
2019-04-27T00:00:47.640Z,0.00
2019-04-27T00:01:48.589Z,0.00
2019-04-27T00:02:47.633Z,0.00
2019-04-27T00:03:47.630Z,0.00
2019-04-27T00:04:48.743Z,0.00
2019-04-27T00:05:47.632Z,0.00
2019-04-27T00:06:47.604Z,0.00
2019-04-27T00:07:51.402Z,0.00
2019-04-27T00:08:47.595Z,0.00
2019-04-27T00:09:51.298Z,0.00
2019-04-27T00:10:47.586Z,0.00
2019-04-27T00:11:47.579Z,0.00
2019-04-27T00:12:47.570Z,0.00
2019-04-27T00:13:47.562Z,0.00
2019-04-27T00:14:48.290Z,0.00
2019-04-27T00:15:47.552Z,0.00
2019-04-27T00:16:50.869Z,0.00
2019-04-27T00:17:49.589Z,0.00
2019-04-27T00:18:49.709Z,0.00
2019-04-27T00:19:47.521Z,0.00
2019-04-27T00:20:47.514Z,0.00
2019-04-27T00:21:47.506Z,0.00
2019-04-27T00:22:47.504Z,0.00
2019-04-27T00:23:47.499Z,0.00
2019-04-27T00:24:47.494Z,0.00
2019-04-27T00:25:47.487Z,0.00
2019-04-27T00:26:47.476Z,0.00
2019-04-27T00:27:47.470Z,0.00
2019-04-27T00:28:47.466Z,0.00
2019-04-27T00:29:47.459Z,0.00
2019-04-27T00:30:47.450Z,0.00
2019-04-27T00:31:47.445Z,0.00
2019-04-27T00:32:47.435Z,0.00
2019-04-27T00:33:47.427Z,0.00
2019-04-27T00:34:47.425Z,0.00
2019-04-27T00:35:47.421Z,0.00
2019-04-27T00:36:47.415Z,0.00
2019-04-27T00:37:47.405Z,0.00
2019-04-27T00:38:47.393Z,0.00
2019-04-27T00:39:47.386Z,0.00
2019-04-27T00:40:47.382Z,0.00
2019-04-27T00:41:47.375Z,0.00
2019-04-27T00:42:47.372Z,0.00
2019-04-27T00:43:47.365Z,0.00
2019-04-27T00:44:47.354Z,0.00
2019-04-27T00:45:47.350Z,0.00
2019-04-27T00:46:47.346Z,0.00
2019-04-27T00:47:56.281Z,0.00
2019-04-27T00:48:47.328Z,0.00
2019-04-27T00:49:47.323Z,0.00
2019-04-27T00:50:47.309Z,0.00
2019-04-27T00:51:47.304Z,0.00
2019-04-27T00:52:47.299Z,0.00
2019-04-27T00:53:47.291Z,0.00
2019-04-27T00:54:47.289Z,0.00
2019-04-27T00:55:47.281Z,0.00
2019-04-27T00:56:47.271Z,0.00
2019-04-27T00:57:47.264Z,0.00
2019-04-27T00:58:47.253Z,0.00
2019-04-27T00:59:47.247Z,0.00
2019-04-27T01:00:47.245Z,0.00
2019-04-27T01:01:47.235Z,0.00
2019-04-27T01:02:47.226Z,0.00
2019-04-27T01:03:47.230Z,0.00
2019-04-27T01:04:47.212Z,0.00
2019-04-27T01:05:47.205Z,0.00
2019-04-27T01:06:47.201Z,0.00
2019-04-27T01:07:47.194Z,0.00
2019-04-27T01:08:47.186Z,0.00
2019-04-27T01:09:47.181Z,0.00
2019-04-27T01:10:47.169Z,0.00
2019-04-27T01:11:47.169Z,0.00
2019-04-27T01:12:47.151Z,0.00
2019-04-27T01:13:47.145Z,0.00
2019-04-27T01:14:47.143Z,0.00
2019-04-27T01:15:47.135Z,0.00
2019-04-27T01:16:47.123Z,0.00
2019-04-27T01:17:48.947Z,0.00
2019-04-27T01:18:48.824Z,0.00
2019-04-27T01:19:47.106Z,0.00
2019-04-27T01:20:48.860Z,0.00
2019-04-27T01:21:47.094Z,0.00
2019-04-27T01:22:47.080Z,0.00
2019-04-27T01:23:48.712Z,0.00
2019-04-27T01:24:47.067Z,0.00
2019-04-27T01:25:47.061Z,0.00
2019-04-27T01:26:47.055Z,0.00
2019-04-27T01:27:47.049Z,0.00
2019-04-27T01:28:47.039Z,0.00
2019-04-27T01:29:47.031Z,0.00
2019-04-27T01:30:47.019Z,0.00
2019-04-27T01:31:48.568Z,0.00
2019-04-27T01:32:47.009Z,0.00
2019-04-27T01:33:48.793Z,0.00
2019-04-27T01:34:46.992Z,0.00
2019-04-27T01:35:46.983Z,0.00
2019-04-27T01:36:46.977Z,0.00
2019-04-27T01:37:48.674Z,0.00
2019-04-27T01:38:46.970Z,0.00
2019-04-27T01:39:48.528Z,0.00
2019-04-27T01:40:46.952Z,0.00
2019-04-27T01:41:46.947Z,0.00
2019-04-27T01:42:48.384Z,0.00
2019-04-27T01:43:46.927Z,0.00
2019-04-27T01:44:46.916Z,0.00
2019-04-27T01:45:48.731Z,0.00
2019-04-27T01:46:48.565Z,0.00
2019-04-27T01:47:46.898Z,0.00
2019-04-27T01:48:46.886Z,0.00
2019-04-27T01:49:46.879Z,0.00
2019-04-27T01:50:46.877Z,0.00
2019-04-27T01:51:46.867Z,0.00
2019-04-27T01:52:48.555Z,0.00
2019-04-27T01:53:46.857Z,0.00
2019-04-27T01:54:46.843Z,0.00
2019-04-27T01:55:49.007Z,0.00
2019-04-27T01:56:46.831Z,0.00
2019-04-27T01:57:48.648Z,0.00
2019-04-27T01:58:46.817Z,0.00
2019-04-27T01:59:46.819Z,0.00
2019-04-27T02:00:46.800Z,0.00
2019-04-27T02:01:46.791Z,0.00
2019-04-27T02:02:46.781Z,0.00
2019-04-27T02:03:46.772Z,0.00
2019-04-27T02:04:46.771Z,0.00
2019-04-27T02:05:46.762Z,0.00
2019-04-27T02:06:48.620Z,0.00
2019-04-27T02:07:46.743Z,0.00
2019-04-27T02:08:46.735Z,0.00
2019-04-27T02:09:48.562Z,0.00
2019-04-27T02:10:46.726Z,0.00
2019-04-27T02:11:46.721Z,0.00
2019-04-27T02:12:48.618Z,0.00
2019-04-27T02:13:46.702Z,0.00
2019-04-27T02:14:46.697Z,0.00
2019-04-27T02:15:48.562Z,0.00
2019-04-27T02:16:46.672Z,0.00
2019-04-27T02:17:46.664Z,0.00
2019-04-27T02:18:46.662Z,0.00
2019-04-27T02:19:46.654Z,0.00
2019-04-27T02:20:46.642Z,0.00
2019-04-27T02:21:46.636Z,0.00
2019-04-27T02:22:46.632Z,0.00
2019-04-27T02:23:46.626Z,0.00
2019-04-27T02:24:46.620Z,0.00
2019-04-27T02:25:46.611Z,0.00
2019-04-27T02:26:46.601Z,0.00
2019-04-27T02:27:46.592Z,0.00
2019-04-27T02:28:46.584Z,0.00
2019-04-27T02:29:46.583Z,0.00
2019-04-27T02:30:46.573Z,0.00
2019-04-27T02:31:46.567Z,0.00
2019-04-27T02:32:46.556Z,0.00
2019-04-27T02:33:46.557Z,0.00
2019-04-27T02:34:46.544Z,0.00
2019-04-27T02:35:46.529Z,0.00
2019-04-27T02:36:46.525Z,0.00
2019-04-27T02:37:46.516Z,0.00
2019-04-27T02:38:46.505Z,0.00
2019-04-27T02:39:46.499Z,0.00
2019-04-27T02:40:46.503Z,0.00
2019-04-27T02:41:46.485Z,0.00
2019-04-27T02:42:46.483Z,0.00
2019-04-27T02:43:46.473Z,0.00
2019-04-27T02:44:46.467Z,0.00
2019-04-27T02:45:46.458Z,0.00
2019-04-27T02:46:46.448Z,0.00
2019-04-27T02:47:46.444Z,0.00
2019-04-27T02:48:58.948Z,0.00
2019-04-27T02:49:46.424Z,0.00
2019-04-27T02:50:46.418Z,0.00
2019-04-27T02:51:46.410Z,0.00
2019-04-27T02:52:46.401Z,0.00
2019-04-27T02:53:46.389Z,0.00
2019-04-27T02:54:46.388Z,0.00
2019-04-27T02:55:46.379Z,0.00
2019-04-27T02:56:46.381Z,0.00
2019-04-27T02:57:46.366Z,0.00
2019-04-27T02:58:46.355Z,0.00
2019-04-27T02:59:46.348Z,0.00
2019-04-27T03:00:46.336Z,0.00
2019-04-27T03:01:46.963Z,0.00
2019-04-27T03:02:46.326Z,0.00
2019-04-27T03:03:46.318Z,0.00
2019-04-27T03:04:46.310Z,0.00
2019-04-27T03:05:46.305Z,0.00
2019-04-27T03:06:46.294Z,0.00
2019-04-27T03:07:46.286Z,0.00
2019-04-27T03:08:50.642Z,0.00
2019-04-27T03:09:46.276Z,0.00
2019-04-27T03:10:46.264Z,0.00
2019-04-27T03:11:46.256Z,0.00
2019-04-27T03:12:46.244Z,0.00
2019-04-27T03:13:46.238Z,0.00
2019-04-27T03:14:46.234Z,0.00
2019-04-27T03:15:46.227Z,0.00
2019-04-27T03:16:46.217Z,0.00
2019-04-27T03:17:46.211Z,0.00
2019-04-27T03:18:46.199Z,0.00
2019-04-27T03:19:46.193Z,0.00
2019-04-27T03:20:46.186Z,0.00
2019-04-27T03:21:46.177Z,0.00
2019-04-27T03:22:46.174Z,0.00
2019-04-27T03:23:46.166Z,0.00
2019-04-27T03:24:46.157Z,0.00
2019-04-27T03:25:46.148Z,0.00
2019-04-27T03:26:46.144Z,0.00
2019-04-27T03:27:46.138Z,0.00
2019-04-27T03:28:46.127Z,0.00
2019-04-27T03:29:46.118Z,0.00
2019-04-27T03:30:46.109Z,0.00
2019-04-27T03:31:47.654Z,0.00
2019-04-27T03:32:46.090Z,0.00
2019-04-27T03:33:46.086Z,0.00
2019-04-27T03:34:46.080Z,0.00
2019-04-27T03:35:46.074Z,0.00
2019-04-27T03:36:46.071Z,0.00
2019-04-27T03:37:46.059Z,0.00
2019-04-27T03:38:46.046Z,0.00
2019-04-27T03:39:46.053Z,0.00
2019-04-27T03:40:46.035Z,0.00
2019-04-27T03:41:46.027Z,0.00
2019-04-27T03:42:46.015Z,0.00
2019-04-27T03:43:46.010Z,0.00
2019-04-27T03:44:45.998Z,0.00
2019-04-27T03:45:45.991Z,0.00
2019-04-27T03:46:45.986Z,0.00
2019-04-27T03:47:45.981Z,0.00
2019-04-27T03:48:45.972Z,0.00
2019-04-27T03:49:45.963Z,0.00
2019-04-27T03:50:45.952Z,0.00
2019-04-27T03:51:45.947Z,0.00
2019-04-27T03:52:45.938Z,0.00
2019-04-27T03:53:45.941Z,0.00
2019-04-27T03:54:45.927Z,0.00
2019-04-27T03:55:45.920Z,0.00
2019-04-27T03:56:45.907Z,0.00
2019-04-27T03:57:45.898Z,0.00
2019-04-27T03:58:45.899Z,0.00
2019-04-27T03:59:45.888Z,0.00
2019-04-27T04:00:45.876Z,0.00
2019-04-27T04:01:45.869Z,0.00
2019-04-27T04:02:45.858Z,0.00
2019-04-27T04:03:45.851Z,0.00
2019-04-27T04:04:45.846Z,0.00
2019-04-27T04:05:45.840Z,0.00
2019-04-27T04:06:45.835Z,5.63
2019-04-27T04:07:45.830Z,5.63
2019-04-27T04:08:45.819Z,5.63
2019-04-27T04:09:45.815Z,5.63
2019-04-27T04:10:45.798Z,11.25
2019-04-27T04:11:45.790Z,11.25
2019-04-27T04:12:45.791Z,16.88
2019-04-27T04:13:45.779Z,16.88
2019-04-27T04:14:45.778Z,22.50
2019-04-27T04:15:45.759Z,22.50
2019-04-27T04:16:45.759Z,22.50
2019-04-27T04:17:45.745Z,28.13
2019-04-27T04:18:45.743Z,28.13
2019-04-27T04:19:54.481Z,28.13
2019-04-27T04:20:45.726Z,28.13
2019-04-27T04:21:45.720Z,33.75
2019-04-27T04:22:45.708Z,33.75
2019-04-27T04:23:45.700Z,33.75
2019-04-27T04:24:45.689Z,33.75
2019-04-27T04:25:45.691Z,39.38
2019-04-27T04:26:45.679Z,39.38
2019-04-27T04:27:45.673Z,39.38
2019-04-27T04:28:45.658Z,39.38
2019-04-27T04:29:45.651Z,45.00
2019-04-27T04:30:45.649Z,45.00
2019-04-27T04:31:45.646Z,45.00
2019-04-27T04:32:45.636Z,50.63
2019-04-27T04:33:45.626Z,56.25
2019-04-27T04:34:45.618Z,56.25
2019-04-27T04:35:45.610Z,56.25
2019-04-27T04:36:45.615Z,61.88
2019-04-27T04:37:45.595Z,61.88
2019-04-27T04:38:45.589Z,61.88
2019-04-27T04:39:45.583Z,67.50
2019-04-27T04:40:45.573Z,67.50
2019-04-27T04:41:45.567Z,73.13
2019-04-27T04:42:45.554Z,84.38
2019-04-27T04:43:45.546Z,101.25
2019-04-27T04:44:45.546Z,157.50
2019-04-27T04:45:45.534Z,202.50
2019-04-27T04:46:45.525Z,213.75
2019-04-27T04:47:45.565Z,225.00
2019-04-27T04:48:45.516Z,236.25
2019-04-27T04:49:45.507Z,225.00
2019-04-27T04:50:45.507Z,213.75
2019-04-27T04:51:45.496Z,230.63
2019-04-27T04:52:45.486Z,270.00
2019-04-27T04:53:45.486Z,236.25
2019-04-27T04:54:45.470Z,191.25
2019-04-27T04:55:45.463Z,146.25
2019-04-27T04:56:45.452Z,151.88
2019-04-27T04:57:45.446Z,146.25
2019-04-27T04:58:45.445Z,140.63
2019-04-27T04:59:45.439Z,168.75
2019-04-27T05:00:45.426Z,140.63
2019-04-27T05:01:45.420Z,112.50
2019-04-27T05:02:45.420Z,106.88
2019-04-27T05:03:45.418Z,106.88
2019-04-27T05:04:45.409Z,106.88
2019-04-27T05:05:45.400Z,112.50
2019-04-27T05:06:45.393Z,112.50
2019-04-27T05:07:45.385Z,118.13
2019-04-27T05:08:45.376Z,123.75
2019-04-27T05:09:45.371Z,129.38
2019-04-27T05:10:45.367Z,135.00
2019-04-27T05:11:45.363Z,140.63
2019-04-27T05:12:45.358Z,140.63
2019-04-27T05:13:45.349Z,140.63
2019-04-27T05:14:45.342Z,140.63
2019-04-27T05:15:45.334Z,140.63
2019-04-27T05:16:45.334Z,123.75
2019-04-27T05:17:45.324Z,112.50
2019-04-27T05:18:45.318Z,112.50
2019-04-27T05:19:45.309Z,106.88
2019-04-27T05:20:45.298Z,95.63
2019-04-27T05:21:45.292Z,95.63
2019-04-27T05:22:45.288Z,106.88
2019-04-27T05:23:45.295Z,101.25
2019-04-27T05:24:45.277Z,84.38
2019-04-27T05:25:45.268Z,73.13
2019-04-27T05:26:45.258Z,78.75
2019-04-27T05:27:45.251Z,90.00
2019-04-27T05:28:45.248Z,101.25
2019-04-27T05:29:45.242Z,123.75
2019-04-27T05:30:45.238Z,135.00
2019-04-27T05:31:45.231Z,135.00
2019-04-27T05:32:45.218Z,135.00
2019-04-27T05:33:45.214Z,146.25
2019-04-27T05:34:45.210Z,163.13
2019-04-27T05:35:45.205Z,168.75
2019-04-27T05:36:48.970Z,174.38
2019-04-27T05:37:45.189Z,180.00
2019-04-27T05:38:46.746Z,185.63
2019-04-27T05:39:45.170Z,196.88
2019-04-27T05:40:45.164Z,196.88
2019-04-27T05:41:45.157Z,202.50
2019-04-27T05:42:48.816Z,202.50
2019-04-27T05:43:45.147Z,202.50
2019-04-27T05:44:46.586Z,196.88
2019-04-27T05:45:45.135Z,191.25
2019-04-27T05:46:45.128Z,185.63
2019-04-27T05:47:50.188Z,174.38
2019-04-27T05:48:45.117Z,163.13
2019-04-27T05:49:45.114Z,157.50
2019-04-27T05:50:45.999Z,157.50
2019-04-27T05:51:47.898Z,151.88
2019-04-27T05:52:45.083Z,140.63
2019-04-27T05:53:45.077Z,135.00
2019-04-27T05:54:45.074Z,129.38
2019-04-27T05:55:45.067Z,118.13
2019-04-27T05:56:45.059Z,118.13
2019-04-27T05:57:45.053Z,112.50
2019-04-27T05:58:45.043Z,106.88
2019-04-27T05:59:45.037Z,95.63
2019-04-27T06:00:45.035Z,90.00
2019-04-27T06:01:45.034Z,84.38
2019-04-27T06:02:45.021Z,73.13
2019-04-27T06:03:45.015Z,61.88
2019-04-27T06:04:45.004Z,61.88
2019-04-27T06:05:44.998Z,67.50
2019-04-27T06:06:44.994Z,73.13
2019-04-27T06:07:44.988Z,73.13
2019-04-27T06:08:44.977Z,73.13
2019-04-27T06:09:44.970Z,78.75
2019-04-27T06:10:44.961Z,90.00
2019-04-27T06:11:44.953Z,84.38
2019-04-27T06:12:44.947Z,90.00
2019-04-27T06:13:44.941Z,90.00
2019-04-27T06:14:44.939Z,95.63
2019-04-27T06:15:44.932Z,101.25
2019-04-27T06:16:44.921Z,101.25
2019-04-27T06:17:44.915Z,95.63
2019-04-27T06:18:44.902Z,95.63
2019-04-27T06:19:44.899Z,95.63
2019-04-27T06:20:54.786Z,95.63
2019-04-27T06:21:44.886Z,90.00
2019-04-27T06:22:44.875Z,95.63
2019-04-27T06:23:44.868Z,101.25
2019-04-27T06:24:44.863Z,106.88
2019-04-27T06:25:44.856Z,112.50
2019-04-27T06:26:44.853Z,118.13
2019-04-27T06:27:44.845Z,118.13
2019-04-27T06:28:44.837Z,112.50
2019-04-27T06:29:44.830Z,106.88
2019-04-27T06:30:44.821Z,118.13
2019-04-27T06:31:44.812Z,106.88
2019-04-27T06:32:44.802Z,101.25
2019-04-27T06:33:44.807Z,95.63
2019-04-27T06:34:44.792Z,78.75
2019-04-27T06:35:44.784Z,90.00
2019-04-27T06:36:44.774Z,101.25
2019-04-27T06:37:44.765Z,106.88
2019-04-27T06:38:44.764Z,123.75
2019-04-27T06:39:44.755Z,118.13
2019-04-27T06:40:44.756Z,118.13
2019-04-27T06:41:44.745Z,129.38
2019-04-27T06:42:44.732Z,140.63
2019-04-27T06:43:44.727Z,174.38
2019-04-27T06:44:44.718Z,191.25
2019-04-27T06:45:44.711Z,208.13
2019-04-27T06:46:44.709Z,213.75
2019-04-27T06:47:44.700Z,213.75
2019-04-27T06:48:44.691Z,202.50
2019-04-27T06:49:44.685Z,219.38
2019-04-27T06:50:44.677Z,236.25
2019-04-27T06:51:44.665Z,247.50
2019-04-27T06:52:44.660Z,292.50
2019-04-27T06:53:44.657Z,337.50
2019-04-27T06:54:44.643Z,348.75
2019-04-27T06:55:44.636Z,320.63
2019-04-27T06:56:44.630Z,275.63
2019-04-27T06:57:44.625Z,241.88
2019-04-27T06:58:44.621Z,230.63
2019-04-27T06:59:44.615Z,208.13
2019-04-27T07:00:44.605Z,191.25
2019-04-27T07:01:44.600Z,174.38
2019-04-27T07:02:44.588Z,174.38
2019-04-27T07:03:44.582Z,196.88
2019-04-27T07:04:44.571Z,196.88
2019-04-27T07:05:44.563Z,191.25
2019-04-27T07:06:53.409Z,185.63
2019-04-27T07:07:44.554Z,196.88
2019-04-27T07:08:44.540Z,236.25
2019-04-27T07:09:44.534Z,247.50
2019-04-27T07:10:44.531Z,258.75
2019-04-27T07:11:44.526Z,281.25
2019-04-27T07:12:44.519Z,298.13
2019-04-27T07:13:44.512Z,286.88
2019-04-27T07:14:52.915Z,258.75
2019-04-27T07:15:44.496Z,247.50
2019-04-27T07:16:44.489Z,236.25
2019-04-27T07:17:44.477Z,213.75
2019-04-27T07:18:44.475Z,196.88
2019-04-27T07:19:44.468Z,163.13
2019-04-27T07:20:44.463Z,135.00
2019-04-27T07:21:44.454Z,129.38
2019-04-27T07:22:44.445Z,118.13
2019-04-27T07:23:44.439Z,112.50
2019-04-27T07:24:44.434Z,135.00
2019-04-27T07:25:44.428Z,146.25
2019-04-27T07:26:44.415Z,118.13
2019-04-27T07:27:44.435Z,101.25
2019-04-27T07:28:44.401Z,118.13
2019-04-27T07:29:44.849Z,140.63
2019-04-27T07:30:44.390Z,151.88
2019-04-27T07:31:44.383Z,151.88
2019-04-27T07:32:44.375Z,180.00
2019-04-27T07:33:44.366Z,208.13
2019-04-27T07:34:44.361Z,213.75
2019-04-27T07:35:44.349Z,213.75
2019-04-27T07:36:44.344Z,208.13
2019-04-27T07:37:44.336Z,225.00
2019-04-27T07:38:44.334Z,225.00
2019-04-27T07:39:44.329Z,236.25
2019-04-27T07:40:44.315Z,258.75
2019-04-27T07:41:44.307Z,264.38
2019-04-27T07:42:46.016Z,258.75
2019-04-27T07:43:44.297Z,264.38
2019-04-27T07:44:44.288Z,286.88
2019-04-27T07:45:44.283Z,309.38
2019-04-27T07:46:44.270Z,320.63
2019-04-27T07:47:44.264Z,320.63
2019-04-27T07:48:44.255Z,315.00
2019-04-27T07:49:44.248Z,320.63
2019-04-27T07:50:44.246Z,320.63
2019-04-27T07:51:44.245Z,292.50
2019-04-27T07:52:44.235Z,286.88
2019-04-27T07:53:44.227Z,298.13
2019-04-27T07:54:44.216Z,303.75
2019-04-27T07:55:44.211Z,298.13
2019-04-27T07:56:44.205Z,303.75
2019-04-27T07:57:44.197Z,320.63
2019-04-27T07:58:44.187Z,298.13
2019-04-27T07:59:44.181Z,281.25
2019-04-27T08:00:44.170Z,247.50
2019-04-27T08:01:44.164Z,270.00
2019-04-27T08:02:44.166Z,309.38
2019-04-27T08:03:44.155Z,337.50
2019-04-27T08:04:44.147Z,343.13
2019-04-27T08:05:44.141Z,315.00
2019-04-27T08:06:44.132Z,275.63
2019-04-27T08:07:44.123Z,303.75
2019-04-27T08:08:44.118Z,348.75
2019-04-27T08:09:44.110Z,315.00
2019-04-27T08:10:44.108Z,315.00
2019-04-27T08:11:44.101Z,382.50
2019-04-27T08:12:44.089Z,382.50
2019-04-27T08:13:44.083Z,388.13
2019-04-27T08:14:44.079Z,360.00
2019-04-27T08:15:44.073Z,331.88
2019-04-27T08:16:44.064Z,219.38
2019-04-27T08:17:44.056Z,140.63
2019-04-27T08:18:44.047Z,146.25
2019-04-27T08:19:44.039Z,123.75
2019-04-27T08:20:44.034Z,129.38
2019-04-27T08:21:46.567Z,118.13
2019-04-27T08:22:44.026Z,101.25
2019-04-27T08:23:44.018Z,95.63
2019-04-27T08:24:44.007Z,106.88
2019-04-27T08:25:44.003Z,101.25
2019-04-27T08:26:43.990Z,106.88
2019-04-27T08:27:43.986Z,101.25
2019-04-27T08:28:43.981Z,101.25
2019-04-27T08:29:43.974Z,112.50
2019-04-27T08:30:43.965Z,106.88
2019-04-27T08:31:43.955Z,168.75
2019-04-27T08:32:43.951Z,157.50
2019-04-27T08:33:43.944Z,157.50
2019-04-27T08:34:43.941Z,135.00
2019-04-27T08:35:43.934Z,123.75
2019-04-27T08:36:43.927Z,157.50
2019-04-27T08:37:43.922Z,123.75
2019-04-27T08:38:43.909Z,112.50
2019-04-27T08:39:43.903Z,123.75
2019-04-27T08:40:43.892Z,230.63
2019-04-27T08:41:43.884Z,208.13
2019-04-27T08:42:43.883Z,180.00
2019-04-27T08:43:43.876Z,298.13
2019-04-27T08:44:43.862Z,309.38
2019-04-27T08:45:43.857Z,326.25
2019-04-27T08:46:43.853Z,315.00
2019-04-27T08:47:43.847Z,309.38
2019-04-27T08:48:43.842Z,331.88
2019-04-27T08:49:43.833Z,393.75
2019-04-27T08:50:43.824Z,444.38
2019-04-27T08:51:56.055Z,500.63
2019-04-27T08:52:43.808Z,545.63
2019-04-27T08:53:43.802Z,545.63
2019-04-27T08:54:43.799Z,478.13
2019-04-27T08:55:43.793Z,483.75
2019-04-27T08:56:43.787Z,433.13
2019-04-27T08:57:43.777Z,399.38
2019-04-27T08:58:43.766Z,399.38
2019-04-27T08:59:43.760Z,343.13
2019-04-27T09:00:43.757Z,320.63
2019-04-27T09:01:43.750Z,320.63
2019-04-27T09:02:47.106Z,264.38
2019-04-27T09:03:43.733Z,230.63
2019-04-27T09:04:43.729Z,298.13
2019-04-27T09:05:43.721Z,281.25
2019-04-27T09:06:43.721Z,174.38
2019-04-27T09:07:43.716Z,151.88
2019-04-27T09:08:43.707Z,180.00
2019-04-27T09:09:43.702Z,163.13
2019-04-27T09:10:43.688Z,168.75
2019-04-27T09:11:43.683Z,140.63
2019-04-27T09:12:43.673Z,129.38
2019-04-27T09:13:43.666Z,174.38
2019-04-27T09:14:43.664Z,213.75
2019-04-27T09:15:43.658Z,264.38
2019-04-27T09:16:43.654Z,309.38
2019-04-27T09:17:43.640Z,315.00
2019-04-27T09:18:43.639Z,331.88
2019-04-27T09:19:43.634Z,286.88
2019-04-27T09:20:43.626Z,298.13
2019-04-27T09:21:43.621Z,315.00
2019-04-27T09:22:43.609Z,354.38
2019-04-27T09:23:43.605Z,371.25
2019-04-27T09:24:43.595Z,382.50
2019-04-27T09:25:43.588Z,455.63
2019-04-27T09:26:43.584Z,495.00
2019-04-27T09:27:43.578Z,562.50
2019-04-27T09:28:43.571Z,630.00
2019-04-27T09:29:43.569Z,506.25
2019-04-27T09:30:43.555Z,399.38
2019-04-27T09:31:43.548Z,303.75
2019-04-27T09:32:43.544Z,247.50
2019-04-27T09:33:43.538Z,225.00
2019-04-27T09:34:43.530Z,191.25
2019-04-27T09:35:43.522Z,185.63
2019-04-27T09:36:43.511Z,118.13
2019-04-27T09:37:43.503Z,67.50
2019-04-27T09:38:43.501Z,39.38
2019-04-27T09:39:43.494Z,78.75
2019-04-27T09:40:43.487Z,106.88
2019-04-27T09:41:43.480Z,129.38
2019-04-27T09:42:43.470Z,163.13
2019-04-27T09:43:43.465Z,174.38
2019-04-27T09:44:43.459Z,196.88
2019-04-27T09:45:43.454Z,196.88
2019-04-27T09:46:43.450Z,213.75
2019-04-27T09:47:43.443Z,225.00
2019-04-27T09:48:43.430Z,241.88
2019-04-27T09:49:43.430Z,258.75
2019-04-27T09:50:43.420Z,270.00
2019-04-27T09:51:43.414Z,264.38
2019-04-27T09:52:43.406Z,264.38
2019-04-27T09:53:43.398Z,303.75
2019-04-27T09:54:43.388Z,343.13
2019-04-27T09:55:43.379Z,388.13
2019-04-27T09:56:43.374Z,393.75
2019-04-27T09:57:43.366Z,382.50
2019-04-27T09:58:43.367Z,376.88
2019-04-27T09:59:43.360Z,354.38
2019-04-27T10:00:43.352Z,309.38
2019-04-27T10:01:43.346Z,292.50
2019-04-27T10:02:43.336Z,315.00
2019-04-27T10:03:43.327Z,348.75
2019-04-27T10:04:43.328Z,371.25
2019-04-27T10:05:43.318Z,376.88
2019-04-27T10:06:43.308Z,371.25
2019-04-27T10:07:43.303Z,365.63
2019-04-27T10:08:43.292Z,376.88
2019-04-27T10:09:43.285Z,388.13
2019-04-27T10:10:43.282Z,382.50
2019-04-27T10:11:43.277Z,371.25
2019-04-27T10:12:43.271Z,348.75
2019-04-27T10:13:43.263Z,320.63
2019-04-27T10:14:43.252Z,298.13
2019-04-27T10:15:43.248Z,286.88
2019-04-27T10:16:43.243Z,275.63
2019-04-27T10:17:43.236Z,286.88
2019-04-27T10:18:43.234Z,309.38
2019-04-27T10:19:43.227Z,331.88
2019-04-27T10:20:56.285Z,343.13
2019-04-27T10:21:43.216Z,354.38
2019-04-27T10:22:43.808Z,360.00
2019-04-27T10:23:43.203Z,365.63
2019-04-27T10:24:43.195Z,388.13
2019-04-27T10:25:43.189Z,427.50
2019-04-27T10:26:43.848Z,461.25
2019-04-27T10:27:43.171Z,461.25
2019-04-27T10:28:43.163Z,461.25
2019-04-27T10:29:43.158Z,444.38
2019-04-27T10:30:43.160Z,388.13
2019-04-27T10:31:43.150Z,382.50
2019-04-27T10:32:43.149Z,416.25
2019-04-27T10:33:43.140Z,427.50
2019-04-27T10:34:43.129Z,393.75
2019-04-27T10:35:43.125Z,360.00
2019-04-27T10:36:43.138Z,337.50
2019-04-27T10:37:43.116Z,326.25
2019-04-27T10:38:43.108Z,309.38
2019-04-27T10:39:43.101Z,309.38
2019-04-27T10:40:43.091Z,326.25
2019-04-27T10:41:43.101Z,348.75
2019-04-27T10:42:43.084Z,343.13
2019-04-27T10:43:43.080Z,337.50
2019-04-27T10:44:43.071Z,315.00
2019-04-27T10:45:43.065Z,286.88
2019-04-27T10:46:43.055Z,281.25
2019-04-27T10:47:43.050Z,298.13
2019-04-27T10:48:43.050Z,320.63
2019-04-27T10:49:43.038Z,348.75
2019-04-27T10:50:43.038Z,371.25
2019-04-27T10:51:43.030Z,410.63
2019-04-27T10:52:52.880Z,461.25
2019-04-27T10:53:43.016Z,483.75
2019-04-27T10:54:43.013Z,438.75
2019-04-27T10:55:43.008Z,371.25
2019-04-27T10:56:43.000Z,360.00
2019-04-27T10:57:42.992Z,360.00
2019-04-27T10:58:42.981Z,354.38
2019-04-27T10:59:42.976Z,337.50
2019-04-27T11:00:42.971Z,337.50
2019-04-27T11:01:42.966Z,337.50
2019-04-27T11:02:42.962Z,326.25
2019-04-27T11:03:42.957Z,315.00
2019-04-27T11:04:42.956Z,303.75
2019-04-27T11:05:42.947Z,303.75
2019-04-27T11:06:42.939Z,292.50
2019-04-27T11:07:42.931Z,286.88
2019-04-27T11:08:42.930Z,292.50
2019-04-27T11:09:42.923Z,303.75
2019-04-27T11:10:42.915Z,315.00
2019-04-27T11:11:42.910Z,315.00
2019-04-27T11:12:42.898Z,309.38
2019-04-27T11:13:42.893Z,309.38
2019-04-27T11:14:42.904Z,303.75
2019-04-27T11:15:42.887Z,286.88
2019-04-27T11:16:42.881Z,281.25
2019-04-27T11:17:42.873Z,270.00
2019-04-27T11:18:42.865Z,258.75
2019-04-27T11:19:42.861Z,258.75
2019-04-27T11:20:42.855Z,275.63
2019-04-27T11:21:42.850Z,298.13
2019-04-27T11:22:42.848Z,286.88
2019-04-27T11:23:42.840Z,292.50
2019-04-27T11:24:42.831Z,337.50
2019-04-27T11:25:42.825Z,416.25
2019-04-27T11:26:42.828Z,461.25
2019-04-27T11:27:42.817Z,410.63
2019-04-27T11:28:42.880Z,348.75
2019-04-27T11:29:42.803Z,388.13
2019-04-27T11:30:42.792Z,388.13
2019-04-27T11:31:42.786Z,399.38
2019-04-27T11:32:42.783Z,393.75
2019-04-27T11:33:42.776Z,405.00
2019-04-27T11:34:42.776Z,343.13
2019-04-27T11:35:42.771Z,253.13
2019-04-27T11:36:42.760Z,247.50
2019-04-27T11:37:42.755Z,275.63
2019-04-27T11:38:42.745Z,247.50
2019-04-27T11:39:42.740Z,219.38
2019-04-27T11:40:42.738Z,185.63
2019-04-27T11:41:42.734Z,208.13
2019-04-27T11:42:42.723Z,320.63
2019-04-27T11:43:42.715Z,360.00
2019-04-27T11:44:42.711Z,365.63
2019-04-27T11:45:42.707Z,376.88
2019-04-27T11:46:42.708Z,399.38
2019-04-27T11:47:42.700Z,433.13
2019-04-27T11:48:42.691Z,478.13
2019-04-27T11:49:42.685Z,478.13
2019-04-27T11:50:42.678Z,472.50
2019-04-27T11:51:42.670Z,483.75
2019-04-27T11:52:42.662Z,461.25
2019-04-27T11:53:42.660Z,438.75
2019-04-27T11:54:42.655Z,455.63
2019-04-27T11:55:42.649Z,551.25
2019-04-27T11:56:42.638Z,714.38
2019-04-27T11:57:42.634Z,838.13
2019-04-27T11:58:42.630Z,759.38
2019-04-27T11:59:42.627Z,635.63
2019-04-27T12:00:42.621Z,680.63
2019-04-27T12:01:42.615Z,781.88
2019-04-27T12:02:42.607Z,714.38
2019-04-27T12:03:42.601Z,590.63
2019-04-27T12:04:42.594Z,528.75
2019-04-27T12:05:42.591Z,495.00
2019-04-27T12:06:42.595Z,466.88
2019-04-27T12:07:42.584Z,528.75
2019-04-27T12:08:42.575Z,556.88
2019-04-27T12:09:42.569Z,545.63
2019-04-27T12:10:42.560Z,489.38
2019-04-27T12:11:42.555Z,444.38
2019-04-27T12:12:42.551Z,455.63
2019-04-27T12:13:42.550Z,500.63
2019-04-27T12:14:42.546Z,590.63
2019-04-27T12:15:42.532Z,585.00
2019-04-27T12:16:42.529Z,556.88
2019-04-27T12:17:42.523Z,534.38
2019-04-27T12:18:42.538Z,551.25
2019-04-27T12:19:42.518Z,556.88
2019-04-27T12:20:42.517Z,579.38
2019-04-27T12:21:42.508Z,646.88
2019-04-27T12:22:42.500Z,703.13
2019-04-27T12:23:42.518Z,691.88
2019-04-27T12:24:42.485Z,652.50
2019-04-27T12:25:42.481Z,630.00
2019-04-27T12:26:42.482Z,618.75
2019-04-27T12:27:42.479Z,551.25
2019-04-27T12:28:42.468Z,478.13
2019-04-27T12:29:42.461Z,399.38
2019-04-27T12:30:42.463Z,337.50
2019-04-27T12:31:44.822Z,331.88
2019-04-27T12:32:42.454Z,371.25
2019-04-27T12:33:42.448Z,455.63
2019-04-27T12:34:42.441Z,641.25
2019-04-27T12:35:42.437Z,838.13
2019-04-27T12:36:42.427Z,950.63
2019-04-27T12:37:42.425Z,888.75
2019-04-27T12:38:42.424Z,731.25
2019-04-27T12:39:42.419Z,618.75
2019-04-27T12:40:42.415Z,562.50
2019-04-27T12:41:42.411Z,556.88
2019-04-27T12:42:42.405Z,590.63
2019-04-27T12:43:42.400Z,630.00
2019-04-27T12:44:42.554Z,680.63
2019-04-27T12:45:43.674Z,720.00
2019-04-27T12:46:42.386Z,714.38